createdAt,value
2019-03-20T00:04:12.459Z,89.96
2019-03-20T00:06:41.835Z,90.00
2019-03-20T00:09:11.211Z,90.40
2019-03-20T00:11:39.750Z,90.74
2019-03-20T00:14:09.102Z,90.09
2019-03-20T00:16:38.447Z,90.21
2019-03-20T00:19:07.846Z,92.53
2019-03-20T00:21:37.188Z,96.14
2019-03-20T00:24:06.544Z,97.06
2019-03-20T00:26:35.909Z,97.46
2019-03-20T00:29:05.289Z,98.39
2019-03-20T00:31:34.676Z,98.43
2019-03-20T00:34:04.042Z,100.00
2019-03-20T00:36:33.494Z,100.00
2019-03-20T00:39:14.575Z,100.00
2019-03-20T00:41:43.147Z,100.00
2019-03-20T00:44:12.490Z,100.00
2019-03-20T00:46:41.870Z,100.00
2019-03-20T00:49:11.221Z,100.00
2019-03-20T00:51:40.564Z,100.00
2019-03-20T00:54:09.950Z,100.00
2019-03-20T00:56:39.328Z,100.00
2019-03-20T00:59:08.715Z,100.00
2019-03-20T01:01:38.098Z,100.00
2019-03-20T01:04:07.447Z,100.00
2019-03-20T01:06:36.805Z,100.00
2019-03-20T01:09:06.830Z,100.00
2019-03-20T01:11:36.192Z,100.00
2019-03-20T01:14:05.545Z,100.00
2019-03-20T01:16:34.939Z,100.00
2019-03-20T01:19:04.286Z,100.00
2019-03-20T01:21:33.630Z,100.00
2019-03-20T01:24:15.198Z,100.00
2019-03-20T01:26:43.847Z,100.00
2019-03-20T01:29:13.186Z,100.00
2019-03-20T01:31:42.583Z,100.00
2019-03-20T01:34:11.933Z,100.00
2019-03-20T01:36:41.268Z,100.00
2019-03-20T01:39:21.461Z,100.00
2019-03-20T01:41:50.813Z,100.00
2019-03-20T01:44:20.181Z,100.00
2019-03-20T01:46:49.696Z,100.00
2019-03-20T01:49:19.045Z,100.00
2019-03-20T01:51:48.442Z,100.00
2019-03-20T01:54:17.793Z,100.00
2019-03-20T01:56:47.194Z,100.00
2019-03-20T01:59:16.606Z,100.00
2019-03-20T02:01:45.947Z,100.00
2019-03-20T02:04:15.493Z,100.00
2019-03-20T02:06:44.867Z,100.00
2019-03-20T02:09:14.260Z,100.00
2019-03-20T02:11:43.647Z,100.00
2019-03-20T02:14:13.002Z,100.00
2019-03-20T02:16:42.339Z,100.00
2019-03-20T02:19:11.691Z,100.00
2019-03-20T02:21:41.032Z,100.00
2019-03-20T02:24:10.400Z,100.00
2019-03-20T02:26:39.801Z,100.00
2019-03-20T02:29:09.152Z,100.00
2019-03-20T02:31:38.521Z,100.00
2019-03-20T02:34:07.872Z,100.00
2019-03-20T02:36:37.208Z,100.00
2019-03-20T02:42:08.967Z,100.00
2019-03-20T02:44:38.335Z,100.00
2019-03-20T02:47:07.693Z,100.00
2019-03-20T02:49:37.101Z,100.00
2019-03-20T02:52:06.488Z,100.00
2019-03-20T02:54:35.831Z,100.00
2019-03-20T02:57:05.179Z,100.00
2019-03-20T02:59:34.553Z,100.00
2019-03-20T03:02:04.193Z,100.00
2019-03-20T03:04:33.590Z,100.00
2019-03-20T03:07:02.964Z,100.00
2019-03-20T03:09:32.302Z,100.00
2019-03-20T03:12:01.668Z,100.00
2019-03-20T03:14:31.009Z,100.00
2019-03-20T03:17:00.357Z,100.00
2019-03-20T03:19:29.736Z,100.00
2019-03-20T03:21:59.082Z,100.00
2019-03-20T03:24:28.660Z,100.00
2019-03-20T03:26:58.008Z,100.00
2019-03-20T03:29:27.379Z,100.00
2019-03-20T03:31:56.724Z,100.00
2019-03-20T03:34:26.109Z,100.00
2019-03-20T03:36:55.409Z,100.00
2019-03-20T03:39:24.771Z,100.00
2019-03-20T03:41:54.101Z,100.00
2019-03-20T03:44:23.448Z,100.00
2019-03-20T03:46:52.822Z,100.00
2019-03-20T03:49:22.203Z,100.00
2019-03-20T03:51:51.566Z,100.00
2019-03-20T03:54:20.923Z,100.00
2019-03-20T03:56:50.509Z,100.00
2019-03-20T03:59:19.883Z,100.00
2019-03-20T04:01:49.207Z,100.00
2019-03-20T04:04:18.579Z,100.00
2019-03-20T04:06:47.957Z,100.00
2019-03-20T04:09:17.300Z,100.00
2019-03-20T04:11:46.698Z,100.00
2019-03-20T04:14:16.070Z,100.00
2019-03-20T04:16:45.429Z,100.00
2019-03-20T04:19:14.795Z,100.00
2019-03-20T04:21:44.158Z,100.00
2019-03-20T04:24:13.513Z,100.00
2019-03-20T04:26:42.869Z,100.00
2019-03-20T04:29:12.226Z,100.00
2019-03-20T04:31:41.593Z,100.00
2019-03-20T04:34:10.956Z,100.00
2019-03-20T04:36:47.686Z,100.00
2019-03-20T04:39:29.593Z,100.00
2019-03-20T04:41:58.964Z,100.00
2019-03-20T04:44:28.321Z,100.00
2019-03-20T04:46:57.678Z,100.00
2019-03-20T04:49:27.049Z,100.00
2019-03-20T04:51:56.413Z,100.00
2019-03-20T04:54:25.775Z,100.00
2019-03-20T04:56:55.123Z,100.00
2019-03-20T04:59:24.487Z,100.00
2019-03-20T05:01:53.867Z,100.00
2019-03-20T05:04:23.215Z,100.00
2019-03-20T05:06:58.682Z,100.00
2019-03-20T05:09:41.841Z,100.00
2019-03-20T05:12:11.205Z,100.00
2019-03-20T05:14:40.559Z,100.00
2019-03-20T05:17:09.926Z,100.00
2019-03-20T05:19:39.329Z,100.00
2019-03-20T05:22:08.704Z,100.00
2019-03-20T05:24:38.066Z,100.00
2019-03-20T05:27:07.430Z,100.00
2019-03-20T05:29:36.777Z,100.00
2019-03-20T05:32:06.147Z,100.00
2019-03-20T05:34:35.518Z,100.00
2019-03-20T05:37:10.137Z,100.00
2019-03-20T05:39:54.160Z,100.00
2019-03-20T05:42:23.523Z,100.00
2019-03-20T05:44:52.898Z,100.00
2019-03-20T05:47:22.262Z,100.00
2019-03-20T05:49:51.618Z,100.00
2019-03-20T05:52:20.990Z,100.00
2019-03-20T05:54:50.348Z,100.00
2019-03-20T05:57:19.718Z,100.00
2019-03-20T05:59:49.085Z,100.00
2019-03-20T06:02:18.433Z,100.00
2019-03-20T06:04:47.818Z,100.00
2019-03-20T06:07:21.630Z,100.00
2019-03-20T06:10:08.249Z,100.00
2019-03-20T06:12:36.922Z,100.00
2019-03-20T06:15:18.010Z,100.00
2019-03-20T06:17:47.076Z,100.00
2019-03-20T06:20:35.934Z,100.00
2019-03-20T06:23:05.310Z,100.00
2019-03-20T06:25:34.723Z,100.00
2019-03-20T06:28:04.103Z,100.00
2019-03-20T06:30:33.450Z,100.00
2019-03-20T06:33:02.944Z,100.00
2019-03-20T06:35:32.299Z,100.00
2019-03-20T06:38:01.684Z,100.00
2019-03-20T06:40:31.072Z,100.00
2019-03-20T06:43:00.481Z,100.00
2019-03-20T06:45:29.851Z,100.00
2019-03-20T06:47:59.341Z,100.00
2019-03-20T06:50:28.693Z,100.00
2019-03-20T06:52:58.156Z,100.00
2019-03-20T06:55:27.523Z,100.00
2019-03-20T06:57:57.125Z,100.00
2019-03-20T07:01:05.204Z,100.00
2019-03-20T07:06:59.997Z,100.00
2019-03-20T07:10:08.240Z,100.00
2019-03-20T07:12:37.612Z,100.00
2019-03-20T07:15:07.083Z,100.00
2019-03-20T07:17:36.448Z,100.00
2019-03-20T07:20:06.117Z,100.00
2019-03-20T07:22:35.488Z,100.00
2019-03-20T07:25:05.309Z,100.00
2019-03-20T07:27:34.715Z,100.00
2019-03-20T07:30:04.953Z,100.00
2019-03-20T07:32:33.608Z,99.84
2019-03-20T07:35:03.222Z,99.72
2019-03-20T07:37:33.716Z,98.54
2019-03-20T07:40:21.858Z,98.87
2019-03-20T07:42:51.230Z,98.50
2019-03-20T07:45:20.600Z,99.67
2019-03-20T07:47:49.971Z,98.45
2019-03-20T07:50:19.348Z,97.76
2019-03-20T07:52:48.712Z,97.47
2019-03-20T07:55:18.064Z,97.36
2019-03-20T07:57:47.443Z,97.30
2019-03-20T08:00:16.820Z,96.16
2019-03-20T08:02:46.193Z,96.27
2019-03-20T08:05:15.673Z,94.51
2019-03-20T08:07:45.054Z,94.74
2019-03-20T08:10:14.434Z,93.73
2019-03-20T08:12:43.892Z,93.39
2019-03-20T08:15:13.658Z,93.90
2019-03-20T08:17:43.045Z,91.56
2019-03-20T08:20:12.961Z,91.49
2019-03-20T08:22:42.309Z,91.92
2019-03-20T08:25:11.779Z,91.47
2019-03-20T08:27:41.163Z,91.86
2019-03-20T08:30:13.823Z,92.20
2019-03-20T08:32:42.627Z,92.46
2019-03-20T08:38:18.460Z,91.86
2019-03-20T08:41:03.320Z,91.38
2019-03-20T08:43:32.679Z,91.59
2019-03-20T08:46:02.080Z,91.47
2019-03-20T08:48:31.490Z,91.26
2019-03-20T08:51:00.858Z,91.39
2019-03-20T08:53:30.252Z,92.24
2019-03-20T08:55:59.600Z,89.95
2019-03-20T08:58:28.981Z,89.90
2019-03-20T09:00:58.321Z,88.49
2019-03-20T09:03:27.747Z,87.80
2019-03-20T09:05:57.131Z,87.38
2019-03-20T09:08:29.616Z,88.02
2019-03-20T09:11:15.757Z,85.89
2019-03-20T09:13:45.145Z,86.38
2019-03-20T09:16:14.607Z,84.68
2019-03-20T09:18:43.992Z,83.99
2019-03-20T09:21:13.357Z,83.26
2019-03-20T09:23:42.754Z,83.51
2019-03-20T09:26:12.146Z,83.43
2019-03-20T09:28:41.518Z,81.25
2019-03-20T09:31:10.888Z,81.00
2019-03-20T09:33:40.353Z,81.05
2019-03-20T09:36:09.751Z,80.93
2019-03-20T09:38:43.301Z,82.29
2019-03-20T09:41:28.444Z,81.04
2019-03-20T09:43:57.844Z,81.72
2019-03-20T09:46:27.241Z,83.75
2019-03-20T09:48:56.597Z,82.59
2019-03-20T09:51:26.027Z,82.32
2019-03-20T09:53:55.462Z,82.35
2019-03-20T09:56:24.023Z,81.78
2019-03-20T09:58:53.388Z,82.68
2019-03-20T10:01:22.874Z,82.72
2019-03-20T10:03:52.353Z,82.73
2019-03-20T10:06:21.764Z,83.88
2019-03-20T10:08:54.470Z,83.72
2019-03-20T10:11:40.556Z,83.30
2019-03-20T10:14:09.928Z,84.28
2019-03-20T10:16:39.358Z,85.08
2019-03-20T10:19:08.840Z,84.70
2019-03-20T10:21:38.206Z,85.37
2019-03-20T10:24:07.559Z,85.38
2019-03-20T10:26:36.914Z,84.58
2019-03-20T10:29:06.306Z,83.75
2019-03-20T10:31:35.787Z,82.29
2019-03-20T10:34:05.162Z,81.65
2019-03-20T10:36:34.656Z,82.49
2019-03-20T10:42:07.381Z,82.94
2019-03-20T10:44:36.763Z,81.69
2019-03-20T10:47:06.121Z,81.15
2019-03-20T10:49:35.471Z,80.79
2019-03-20T10:52:04.894Z,80.19
2019-03-20T10:54:34.279Z,80.94
2019-03-20T10:57:03.734Z,80.12
2019-03-20T10:59:33.203Z,79.67
2019-03-20T11:02:02.696Z,79.65
2019-03-20T11:04:32.078Z,77.97
2019-03-20T11:07:01.454Z,78.49
2019-03-20T11:09:30.932Z,79.37
2019-03-20T11:12:00.312Z,79.79
2019-03-20T11:14:29.672Z,79.90
2019-03-20T11:16:59.126Z,79.73
2019-03-20T11:19:28.552Z,78.65
2019-03-20T11:21:57.889Z,76.89
2019-03-20T11:24:27.326Z,76.24
2019-03-20T11:26:56.719Z,77.05
2019-03-20T11:29:26.080Z,76.91
2019-03-20T11:31:55.519Z,76.49
2019-03-20T11:34:24.868Z,75.32
2019-03-20T11:36:54.690Z,75.79
2019-03-20T11:39:29.893Z,74.81
2019-03-20T11:42:16.879Z,74.54
2019-03-20T11:44:46.325Z,75.34
2019-03-20T11:47:15.701Z,73.21
2019-03-20T11:52:47.761Z,72.67
2019-03-20T11:55:17.221Z,71.96
2019-03-20T11:57:46.621Z,71.85
2019-03-20T12:00:16.637Z,72.55
2019-03-20T12:02:46.103Z,70.57
2019-03-20T12:05:15.493Z,71.43
2019-03-20T12:07:44.999Z,71.72
2019-03-20T12:10:16.728Z,70.96
2019-03-20T12:12:45.282Z,71.23
2019-03-20T12:15:14.921Z,70.92
2019-03-20T12:17:44.347Z,72.13
2019-03-20T12:20:15.443Z,72.48
2019-03-20T12:22:44.351Z,73.94
2019-03-20T12:25:16.380Z,73.39
2019-03-20T12:27:45.140Z,71.88
2019-03-20T12:33:18.151Z,72.21
2019-03-20T12:35:47.547Z,71.54
2019-03-20T12:38:16.928Z,70.89
2019-03-20T12:40:46.412Z,70.64
2019-03-20T12:43:15.802Z,69.89
2019-03-20T12:45:45.344Z,70.31
2019-03-20T12:48:14.738Z,70.19
2019-03-20T12:50:44.081Z,69.47
2019-03-20T12:53:13.900Z,70.30
2019-03-20T12:55:43.228Z,70.22
2019-03-20T12:58:12.588Z,70.68
2019-03-20T13:00:41.956Z,71.58
2019-03-20T13:05:40.670Z,72.58
2019-03-20T13:08:10.111Z,72.08
2019-03-20T13:10:39.606Z,71.15
2019-03-20T13:13:09.065Z,71.37
2019-03-20T13:15:38.457Z,71.85
2019-03-20T13:18:07.809Z,71.44
2019-03-20T13:20:37.325Z,72.62
2019-03-20T13:23:08.564Z,72.63
2019-03-20T13:28:40.148Z,71.93
2019-03-20T13:31:13.121Z,72.05
2019-03-20T13:36:45.145Z,72.08
2019-03-20T13:39:33.933Z,72.60
2019-03-20T13:42:03.415Z,74.52
2019-03-20T13:44:32.743Z,71.21
2019-03-20T13:47:02.103Z,74.01
2019-03-20T13:49:31.487Z,75.85
2019-03-20T13:52:00.867Z,73.98
2019-03-20T13:54:30.211Z,71.65
2019-03-20T13:56:59.664Z,72.89
2019-03-20T13:59:30.036Z,72.12
2019-03-20T14:01:59.452Z,72.24
2019-03-20T14:04:28.879Z,73.65
2019-03-20T14:06:58.266Z,73.39
2019-03-20T14:09:27.673Z,74.73
2019-03-20T14:11:57.079Z,73.74
2019-03-20T14:14:26.437Z,73.96
2019-03-20T14:16:55.835Z,74.81
2019-03-20T14:19:25.191Z,74.71
2019-03-20T14:21:54.565Z,75.12
2019-03-20T14:24:24.411Z,77.45
2019-03-20T14:26:53.761Z,73.98
2019-03-20T14:29:23.180Z,74.18
2019-03-20T14:31:52.523Z,76.14
2019-03-20T14:34:21.929Z,74.50
2019-03-20T14:36:51.288Z,74.81
2019-03-20T14:39:20.656Z,74.98
2019-03-20T14:41:50.020Z,74.50
2019-03-20T14:44:19.376Z,75.47
2019-03-20T14:46:48.727Z,75.42
2019-03-20T14:49:18.133Z,76.26
2019-03-20T14:51:47.503Z,77.14
2019-03-20T14:54:16.936Z,76.31
2019-03-20T14:56:47.489Z,76.42
2019-03-20T14:59:16.878Z,77.30
2019-03-20T15:01:46.266Z,77.12
2019-03-20T15:04:15.622Z,76.79
2019-03-20T15:06:44.961Z,77.62
2019-03-20T15:09:15.840Z,79.32
2019-03-20T15:11:44.487Z,79.62
2019-03-20T15:14:13.851Z,77.47
2019-03-20T15:16:43.200Z,79.21
2019-03-20T15:19:12.580Z,77.94
2019-03-20T15:21:41.935Z,78.51
2019-03-20T15:24:11.306Z,77.82
2019-03-20T15:26:40.677Z,79.28
2019-03-20T15:29:10.028Z,80.97
2019-03-20T15:31:39.401Z,78.24
2019-03-20T15:34:08.768Z,79.60
2019-03-20T15:36:38.205Z,80.65
2019-03-20T15:39:07.778Z,83.48
2019-03-20T15:41:37.184Z,79.93
2019-03-20T15:44:06.543Z,79.92
2019-03-20T15:46:35.936Z,81.75
2019-03-20T15:49:05.291Z,81.16
2019-03-20T15:51:34.711Z,80.81
2019-03-20T15:54:15.596Z,79.80
2019-03-20T15:56:44.356Z,80.00
2019-03-20T15:59:13.708Z,80.06
2019-03-20T16:01:43.077Z,79.74
2019-03-20T16:04:12.524Z,79.04
2019-03-20T16:06:41.879Z,81.36
2019-03-20T16:09:11.243Z,80.71
2019-03-20T16:11:40.611Z,80.86
2019-03-20T16:14:09.963Z,80.29
2019-03-20T16:16:39.316Z,80.52
2019-03-20T16:19:08.676Z,80.56
2019-03-20T16:21:38.116Z,80.40
2019-03-20T16:24:07.506Z,81.23
2019-03-20T16:26:37.291Z,81.18
2019-03-20T16:29:06.649Z,81.82
2019-03-20T16:31:36.051Z,81.11
2019-03-20T16:34:05.395Z,81.87
2019-03-20T16:36:34.769Z,81.08
2019-03-20T16:42:08.187Z,83.24
2019-03-20T16:44:37.536Z,81.04
2019-03-20T16:47:06.949Z,80.85
2019-03-20T16:49:36.310Z,82.78
2019-03-20T16:52:05.663Z,82.64
2019-03-20T16:54:35.009Z,80.63
2019-03-20T16:57:04.363Z,80.03
2019-03-20T16:59:33.726Z,81.20
2019-03-20T17:02:03.114Z,84.72
2019-03-20T17:04:32.465Z,81.61
2019-03-20T17:07:01.833Z,79.99
2019-03-20T17:09:31.231Z,79.89
2019-03-20T17:12:00.632Z,80.38
2019-03-20T17:14:30.025Z,79.00
2019-03-20T17:16:59.396Z,78.38
2019-03-20T17:19:28.756Z,79.04
2019-03-20T17:21:58.124Z,79.23
2019-03-20T17:24:27.567Z,82.97
2019-03-20T17:26:56.923Z,79.49
2019-03-20T17:29:26.331Z,79.66
2019-03-20T17:31:55.683Z,78.80
2019-03-20T17:34:25.090Z,80.92
2019-03-20T17:36:54.465Z,81.04
2019-03-20T17:39:23.907Z,81.50
2019-03-20T17:41:53.270Z,79.27
2019-03-20T17:44:22.689Z,79.10
2019-03-20T17:46:52.055Z,80.80
2019-03-20T17:49:21.498Z,77.86
2019-03-20T17:51:50.911Z,79.43
2019-03-20T17:54:20.327Z,79.74
2019-03-20T17:56:49.751Z,76.30
2019-03-20T17:59:19.205Z,76.43
2019-03-20T18:01:48.557Z,77.84
2019-03-20T18:04:17.918Z,76.62
2019-03-20T18:06:47.300Z,77.19
2019-03-20T18:09:16.674Z,77.77
2019-03-20T18:11:47.674Z,76.49
2019-03-20T18:14:35.379Z,78.89
2019-03-20T18:17:04.870Z,76.59
2019-03-20T18:19:34.282Z,76.83
2019-03-20T18:22:03.642Z,79.36
2019-03-20T18:24:32.967Z,78.32
2019-03-20T18:27:02.326Z,76.00
2019-03-20T18:29:31.680Z,78.92
2019-03-20T18:32:01.045Z,76.20
2019-03-20T18:34:30.410Z,79.33
2019-03-20T18:36:59.773Z,76.76
2019-03-20T18:39:29.152Z,77.29
2019-03-20T18:41:58.534Z,79.33
2019-03-20T18:44:27.866Z,78.99
2019-03-20T18:46:57.249Z,80.58
2019-03-20T18:49:26.596Z,78.50
2019-03-20T18:51:55.927Z,80.04
2019-03-20T18:54:25.276Z,78.58
2019-03-20T18:56:54.626Z,77.38
2019-03-20T18:59:24.122Z,77.18
2019-03-20T19:01:53.476Z,77.39
2019-03-20T19:04:22.819Z,77.14
2019-03-20T19:06:52.152Z,76.75
2019-03-20T19:09:21.630Z,75.97
2019-03-20T19:11:51.078Z,76.63
2019-03-20T19:14:20.423Z,79.52
2019-03-20T19:16:49.829Z,77.57
2019-03-20T19:19:19.295Z,77.72
2019-03-20T19:21:48.663Z,79.61
2019-03-20T19:24:18.024Z,77.38
2019-03-20T19:26:47.379Z,76.12
2019-03-20T19:29:16.734Z,76.90
2019-03-20T19:31:46.111Z,75.43
2019-03-20T19:34:15.458Z,76.31
2019-03-20T19:36:44.796Z,76.10
2019-03-20T19:39:14.153Z,77.95
2019-03-20T19:41:43.509Z,78.06
2019-03-20T19:44:12.849Z,77.73
2019-03-20T19:46:42.212Z,76.56
2019-03-20T19:49:11.561Z,75.57
2019-03-20T19:51:40.898Z,75.45
2019-03-20T19:54:10.278Z,76.78
2019-03-20T19:56:39.677Z,75.90
2019-03-20T19:59:09.108Z,77.95
2019-03-20T20:01:38.439Z,74.47
2019-03-20T20:04:07.765Z,74.82
2019-03-20T20:06:37.110Z,77.20
2019-03-20T20:09:07.175Z,78.16
2019-03-20T20:11:36.615Z,74.93
2019-03-20T20:14:05.954Z,76.21
2019-03-20T20:16:35.299Z,78.38
2019-03-20T20:19:04.658Z,76.40
2019-03-20T20:21:34.007Z,78.25
2019-03-20T20:24:03.364Z,79.05
2019-03-20T20:26:32.781Z,77.72
2019-03-20T20:29:02.128Z,77.45
2019-03-20T20:31:31.470Z,80.60
2019-03-20T20:34:00.835Z,78.34
2019-03-20T20:36:30.162Z,78.54
2019-03-20T20:38:59.509Z,80.77
2019-03-20T20:41:28.887Z,79.56
2019-03-20T20:43:58.272Z,81.41
2019-03-20T20:46:27.730Z,81.68
2019-03-20T20:48:57.087Z,82.23
2019-03-20T20:51:26.423Z,81.36
2019-03-20T20:53:55.796Z,83.31
2019-03-20T20:56:25.222Z,84.28
2019-03-20T20:58:54.586Z,82.31
2019-03-20T21:01:23.933Z,82.51
2019-03-20T21:03:53.272Z,82.39
2019-03-20T21:06:22.600Z,82.32
2019-03-20T21:08:51.948Z,83.58
2019-03-20T21:11:21.288Z,83.77
2019-03-20T21:13:50.628Z,83.07
2019-03-20T21:16:20.522Z,85.95
2019-03-20T21:19:28.639Z,83.51
2019-03-20T21:22:36.720Z,84.31
2019-03-20T21:25:06.023Z,83.05
2019-03-20T21:28:14.147Z,82.16
2019-03-20T21:31:22.201Z,84.74
2019-03-20T21:34:29.618Z,82.93
2019-03-20T21:37:37.707Z,83.62
2019-03-20T21:40:08.015Z,83.60
2019-03-20T21:43:15.270Z,82.83
2019-03-20T21:46:22.623Z,82.47
2019-03-20T21:48:51.678Z,84.10
2019-03-20T21:51:21.925Z,82.27
2019-03-20T21:54:29.973Z,81.47
2019-03-20T21:57:29.872Z,81.67
2019-03-20T22:00:37.973Z,81.23
2019-03-20T22:03:07.850Z,80.72
2019-03-20T22:06:15.969Z,80.85
2019-03-20T22:08:46.196Z,81.72
2019-03-20T22:11:54.317Z,83.89
2019-03-20T22:14:24.205Z,81.50
2019-03-20T22:17:26.483Z,83.77
2019-03-20T22:20:34.526Z,85.73
2019-03-20T22:23:41.879Z,84.01
2019-03-20T22:26:49.233Z,83.45
2019-03-20T22:29:37.483Z,82.76
2019-03-20T22:32:31.940Z,85.57
2019-03-20T22:35:39.390Z,82.90
2019-03-20T22:38:14.236Z,82.08
2019-03-20T22:41:21.674Z,84.85
2019-03-20T22:43:55.665Z,83.14
2019-03-20T22:47:03.781Z,85.63
2019-03-20T22:50:11.855Z,85.13
2019-03-20T22:53:04.129Z,84.59
2019-03-20T22:56:11.381Z,86.10
2019-03-20T22:58:59.548Z,86.64
2019-03-20T23:02:07.666Z,87.28
2019-03-20T23:04:40.811Z,87.43
2019-03-20T23:07:10.723Z,86.47
2019-03-20T23:09:59.744Z,86.77
2019-03-20T23:12:29.622Z,85.53
2019-03-20T23:14:59.505Z,85.39
2019-03-20T23:17:29.366Z,85.46
2019-03-20T23:23:02.323Z,87.32
2019-03-20T23:25:32.192Z,84.78
2019-03-20T23:28:02.065Z,83.08
2019-03-20T23:30:31.985Z,83.52
2019-03-20T23:33:01.852Z,82.27
2019-03-20T23:35:31.726Z,81.71
2019-03-20T23:38:01.632Z,81.60
2019-03-20T23:40:31.504Z,82.71
2019-03-20T23:43:01.740Z,81.50
2019-03-20T23:45:31.617Z,83.20
2019-03-20T23:48:25.317Z,79.16
2019-03-20T23:50:58.924Z,78.77
2019-03-20T23:53:28.188Z,82.37
2019-03-20T23:55:58.052Z,76.53
2019-03-20T23:58:27.916Z,83.50
